createdAt,value
2022-11-16T00:01:13.846Z,100581.98
2022-11-16T00:03:43.561Z,100580.65
2022-11-16T00:06:14.672Z,100572.11
2022-11-16T00:09:11.140Z,100557.86
2022-11-16T00:11:39.947Z,100560.56
2022-11-16T00:14:09.267Z,100561.95
2022-11-16T00:16:38.551Z,100565.31
2022-11-16T00:19:08.627Z,100565.18
2022-11-16T00:21:37.469Z,100563.21
2022-11-16T00:24:07.170Z,100555.91
2022-11-16T00:26:35.752Z,100557.13
2022-11-16T00:29:04.312Z,100553.86
2022-11-16T00:31:33.061Z,100551.83
2022-11-16T00:34:01.699Z,100548.27
2022-11-16T00:36:30.718Z,100542.77
2022-11-16T00:38:59.331Z,100539.55
2022-11-16T00:41:27.944Z,100540.11
2022-11-16T00:43:56.582Z,100540.27
2022-11-16T00:46:25.339Z,100539.08
2022-11-16T00:48:54.510Z,100529.09
2022-11-16T00:51:23.156Z,100525.31
2022-11-16T00:53:51.889Z,100520.13
2022-11-16T00:56:20.889Z,100518.39
2022-11-16T00:58:50.712Z,100513.70
2022-11-16T01:01:19.614Z,100503.03
2022-11-16T01:03:48.202Z,100499.74
2022-11-16T01:06:17.883Z,100495.71
2022-11-16T01:08:46.814Z,100488.59
2022-11-16T01:11:36.813Z,100496.04
2022-11-16T01:14:09.672Z,100495.73
2022-11-16T01:16:38.655Z,100486.66
2022-11-16T01:19:08.158Z,100476.96
2022-11-16T01:21:36.976Z,100471.29
2022-11-16T01:24:06.554Z,100464.95
2022-11-16T01:26:35.235Z,100460.77
2022-11-16T01:29:04.443Z,100458.33
2022-11-16T01:31:37.021Z,100456.28
2022-11-16T01:34:06.792Z,100447.48
2022-11-16T01:36:37.048Z,100434.77
2022-11-16T01:39:06.465Z,100426.56
2022-11-16T01:42:28.535Z,100427.02
2022-11-16T01:45:47.419Z,100429.05
2022-11-16T01:48:28.093Z,100422.00
2022-11-16T01:50:58.286Z,100417.30
2022-11-16T01:53:27.270Z,100422.96
2022-11-16T01:55:58.224Z,100424.49
2022-11-16T01:58:51.916Z,100423.88
2022-11-16T02:01:26.908Z,100424.22
2022-11-16T02:03:57.055Z,100421.79
2022-11-16T02:06:40.975Z,100422.27
2022-11-16T02:09:52.165Z,100421.70
2022-11-16T02:12:43.764Z,100423.23
2022-11-16T02:15:48.344Z,100423.41
2022-11-16T02:18:33.344Z,100420.80
2022-11-16T02:21:29.413Z,100420.99
2022-11-16T02:24:43.792Z,100416.95
2022-11-16T02:27:45.088Z,100415.00
2022-11-16T02:30:14.448Z,100422.00
2022-11-16T02:32:56.763Z,100428.85
2022-11-16T02:35:52.794Z,100427.86
2022-11-16T02:38:34.221Z,100426.44
2022-11-16T02:41:10.965Z,100419.23
2022-11-16T02:43:48.793Z,100418.34
2022-11-16T02:46:25.700Z,100413.90
2022-11-16T02:49:01.444Z,100410.92
2022-11-16T02:51:31.677Z,100407.83
2022-11-16T02:54:22.910Z,100403.42
2022-11-16T02:57:05.572Z,100398.45
2022-11-16T02:59:58.738Z,100395.63
2022-11-16T03:02:48.326Z,100393.84
2022-11-16T03:05:36.146Z,100387.05
2022-11-16T03:08:38.637Z,100384.20
2022-11-16T03:11:28.829Z,100384.69
2022-11-16T03:14:07.888Z,100378.60
2022-11-16T03:16:46.359Z,100379.59
2022-11-16T03:19:25.102Z,100377.58
2022-11-16T03:22:11.906Z,100372.30
2022-11-16T03:24:42.015Z,100363.63
2022-11-16T03:27:13.885Z,100363.45
2022-11-16T03:30:23.821Z,100357.30
2022-11-16T03:33:29.574Z,100360.88
2022-11-16T03:36:16.419Z,100365.90
2022-11-16T03:38:48.101Z,100370.24
2022-11-16T03:41:19.044Z,100367.00
2022-11-16T03:43:49.832Z,100364.89
2022-11-16T03:46:20.576Z,100359.45
2022-11-16T03:48:49.357Z,100352.17
2022-11-16T03:51:25.893Z,100353.39
2022-11-16T03:53:55.674Z,100342.00
2022-11-16T03:56:24.339Z,100341.80
2022-11-16T03:58:53.000Z,100339.13
2022-11-16T04:01:21.605Z,100336.42
2022-11-16T04:03:50.728Z,100332.02
2022-11-16T04:06:39.212Z,100336.05
2022-11-16T04:09:10.913Z,100336.19
2022-11-16T04:11:58.407Z,100331.86
2022-11-16T04:14:46.857Z,100327.17
2022-11-16T04:17:38.459Z,100321.89
2022-11-16T04:20:28.687Z,100312.90
2022-11-16T04:23:27.897Z,100309.97
2022-11-16T04:25:57.657Z,100304.94
2022-11-16T04:28:31.263Z,100300.59
2022-11-16T04:31:23.573Z,100294.88
2022-11-16T04:34:30.297Z,100295.88
2022-11-16T04:37:17.520Z,100295.57
2022-11-16T04:39:46.876Z,100297.41
2022-11-16T04:42:20.023Z,100293.20
2022-11-16T04:45:09.766Z,100285.91
2022-11-16T04:47:52.054Z,100289.75
2022-11-16T04:50:22.463Z,100292.98
2022-11-16T04:52:51.738Z,100289.30
2022-11-16T04:55:20.505Z,100293.14
2022-11-16T04:57:49.701Z,100287.63
2022-11-16T05:00:19.686Z,100284.02
2022-11-16T05:02:48.579Z,100275.55
2022-11-16T05:05:17.944Z,100264.17
2022-11-16T05:07:48.212Z,100258.84
2022-11-16T05:10:25.546Z,100248.14
2022-11-16T05:12:54.572Z,100245.52
2022-11-16T05:15:23.549Z,100243.61
2022-11-16T05:17:55.120Z,100253.48
2022-11-16T05:20:44.703Z,100257.49
2022-11-16T05:23:33.329Z,100257.02
2022-11-16T05:26:06.756Z,100252.38
2022-11-16T05:28:35.766Z,100252.52
2022-11-16T05:31:04.995Z,100256.45
2022-11-16T05:33:33.761Z,100257.91
2022-11-16T05:36:02.480Z,100259.36
2022-11-16T05:38:31.422Z,100255.11
2022-11-16T05:41:01.196Z,100253.24
2022-11-16T05:43:30.289Z,100251.27
2022-11-16T05:46:33.277Z,100253.26
2022-11-16T05:49:02.189Z,100253.66
2022-11-16T05:51:31.791Z,100255.62
2022-11-16T05:54:01.803Z,100247.68
2022-11-16T05:56:31.378Z,100246.45
2022-11-16T05:59:00.833Z,100245.55
2022-11-16T06:01:29.655Z,100247.58
2022-11-16T06:04:02.935Z,100245.41
2022-11-16T06:06:31.909Z,100240.52
2022-11-16T06:09:00.820Z,100238.89
2022-11-16T06:11:34.435Z,100237.50
2022-11-16T06:14:05.601Z,100239.05
2022-11-16T06:16:34.819Z,100239.36
2022-11-16T06:19:07.869Z,100236.30
2022-11-16T06:21:38.180Z,100227.69
2022-11-16T06:24:10.632Z,100221.86
2022-11-16T06:26:39.452Z,100223.52
2022-11-16T06:29:08.217Z,100222.32
2022-11-16T06:31:37.393Z,100222.92
2022-11-16T06:34:06.150Z,100221.09
2022-11-16T06:36:35.443Z,100215.84
2022-11-16T06:39:04.817Z,100220.23
2022-11-16T06:41:41.044Z,100224.83
2022-11-16T06:44:10.863Z,100224.63
2022-11-16T06:46:42.604Z,100221.19
2022-11-16T06:49:11.671Z,100220.71
2022-11-16T06:51:40.525Z,100218.21
2022-11-16T06:54:10.184Z,100221.75
2022-11-16T06:56:39.049Z,100222.77
2022-11-16T06:59:09.360Z,100218.84
2022-11-16T07:01:38.972Z,100219.97
2022-11-16T07:04:16.188Z,100221.11
2022-11-16T07:06:50.016Z,100214.30
2022-11-16T07:09:19.094Z,100216.33
2022-11-16T07:11:48.469Z,100212.45
2022-11-16T07:14:17.782Z,100215.64
2022-11-16T07:16:46.673Z,100209.27
2022-11-16T07:19:16.983Z,100200.61
2022-11-16T07:21:45.810Z,100195.67
2022-11-16T07:24:17.081Z,100193.02
2022-11-16T07:26:45.746Z,100187.16
2022-11-16T07:29:18.183Z,100183.70
2022-11-16T07:32:05.488Z,100184.93
2022-11-16T07:34:54.139Z,100186.70
2022-11-16T07:37:22.973Z,100184.71
2022-11-16T07:39:52.832Z,100180.84
2022-11-16T07:42:22.174Z,100185.04
2022-11-16T07:45:43.788Z,100184.77
2022-11-16T07:48:12.981Z,100190.45
2022-11-16T07:51:09.323Z,100191.77
2022-11-16T07:53:41.715Z,100190.45
2022-11-16T07:56:12.049Z,100191.30
2022-11-16T07:58:41.968Z,100188.97
2022-11-16T08:01:19.164Z,100173.84
2022-11-16T08:03:48.386Z,100163.05
2022-11-16T08:06:26.920Z,100161.61
2022-11-16T08:08:58.803Z,100160.66
2022-11-16T08:11:27.950Z,100162.61
2022-11-16T08:13:57.923Z,100161.98
2022-11-16T08:16:26.711Z,100156.86
2022-11-16T08:19:02.564Z,100144.30
2022-11-16T08:21:31.289Z,100133.83
2022-11-16T08:24:00.056Z,100131.00
2022-11-16T08:26:29.205Z,100128.73
2022-11-16T08:29:06.690Z,100126.92
2022-11-16T08:31:37.440Z,100126.71
2022-11-16T08:34:13.229Z,100128.84
2022-11-16T08:36:44.599Z,100130.77
2022-11-16T08:39:13.966Z,100129.05
2022-11-16T08:41:44.525Z,100125.74
2022-11-16T08:44:14.590Z,100127.29
2022-11-16T08:46:45.517Z,100130.31
2022-11-16T08:50:04.775Z,100127.17
2022-11-16T08:52:35.367Z,100120.88
2022-11-16T08:55:07.758Z,100116.20
2022-11-16T08:57:37.369Z,100117.25
2022-11-16T09:00:11.478Z,100108.76
2022-11-16T09:02:40.981Z,100104.38
2022-11-16T09:05:12.272Z,100107.55
2022-11-16T09:07:44.332Z,100095.16
2022-11-16T09:10:14.365Z,100100.17
2022-11-16T09:12:42.993Z,100107.95
2022-11-16T09:15:11.910Z,100109.58
2022-11-16T09:17:40.552Z,100106.10
2022-11-16T09:20:09.734Z,100097.89
2022-11-16T09:22:38.493Z,100096.02
2022-11-16T09:25:09.592Z,100089.86
2022-11-16T09:27:38.408Z,100075.54
2022-11-16T09:30:09.557Z,100073.42
2022-11-16T09:32:38.518Z,100079.77
2022-11-16T09:35:07.695Z,100079.73
2022-11-16T09:37:36.336Z,100087.20
2022-11-16T09:40:06.329Z,100086.71
2022-11-16T09:43:06.680Z,100080.77
2022-11-16T09:46:08.086Z,100081.83
2022-11-16T09:48:39.251Z,100082.02
2022-11-16T09:51:14.224Z,100079.02
2022-11-16T09:53:49.040Z,100068.66
2022-11-16T09:56:26.330Z,100059.64
2022-11-16T09:59:06.239Z,100057.77
2022-11-16T10:01:56.247Z,100055.65
2022-11-16T10:04:58.654Z,100048.80
2022-11-16T10:07:42.373Z,100036.90
2022-11-16T10:10:37.982Z,100031.36
2022-11-16T10:13:43.901Z,100030.73
2022-11-16T10:16:59.214Z,100031.30
2022-11-16T10:19:47.896Z,100024.04
2022-11-16T10:22:46.231Z,100022.46
2022-11-16T10:25:36.085Z,100019.74
2022-11-16T10:28:25.198Z,100021.39
2022-11-16T10:31:28.904Z,100016.65
2022-11-16T10:33:59.270Z,100012.34
2022-11-16T10:36:32.748Z,100017.58
2022-11-16T10:39:02.861Z,100015.29
2022-11-16T10:41:48.962Z,100005.27
2022-11-16T10:44:44.086Z,100000.71
2022-11-16T10:47:47.277Z,99994.02
2022-11-16T10:50:37.987Z,99996.69
2022-11-16T10:53:06.879Z,99996.04
2022-11-16T10:55:35.660Z,99994.86
2022-11-16T10:58:06.872Z,99994.97
2022-11-16T11:00:48.195Z,99994.81
2022-11-16T11:07:37.979Z,99992.46
2022-11-16T11:24:52.481Z,99986.98
2022-11-16T11:27:27.255Z,99985.71
2022-11-16T11:29:58.937Z,99990.69
2022-11-16T11:32:39.691Z,99992.35
2022-11-16T11:35:33.332Z,99992.65
2022-11-16T11:38:07.981Z,99987.73
2022-11-16T11:40:37.191Z,99987.42
2022-11-16T11:43:06.619Z,99983.48
2022-11-16T11:45:48.085Z,99981.31
2022-11-16T11:48:48.101Z,99974.03
2022-11-16T11:51:35.486Z,99971.95
2022-11-16T11:54:08.067Z,99975.55
2022-11-16T11:56:36.776Z,99976.16
2022-11-16T11:59:05.636Z,99972.13
2022-11-16T12:02:26.603Z,99966.77
2022-11-16T12:05:10.560Z,99955.31
2022-11-16T12:08:04.154Z,99956.98
2022-11-16T12:10:41.628Z,99950.98
2022-11-16T12:13:39.698Z,99944.06
2022-11-16T12:16:42.211Z,99943.58
2022-11-16T12:19:22.633Z,99949.29
2022-11-16T12:22:15.784Z,99952.77
2022-11-16T12:25:02.895Z,99954.65
2022-11-16T12:32:51.386Z,99938.67
2022-11-16T12:35:41.710Z,99933.29
2022-11-16T12:38:51.335Z,99928.06
2022-11-16T12:41:50.815Z,99929.69
2022-11-16T12:44:57.464Z,99934.07
2022-11-16T12:48:02.560Z,99938.33
2022-11-16T12:51:10.154Z,99945.13
2022-11-16T12:54:07.488Z,99945.85
2022-11-16T12:57:07.372Z,99938.08
2022-11-16T12:59:51.071Z,99932.42
2022-11-16T13:03:02.670Z,99934.41
2022-11-16T13:06:06.878Z,99930.58
2022-11-16T13:09:02.235Z,99930.82
2022-11-16T13:11:46.179Z,99928.30
2022-11-16T13:14:25.372Z,99921.52
2022-11-16T13:16:57.639Z,99923.52
2022-11-16T13:19:28.056Z,99924.39
2022-11-16T13:22:11.297Z,99921.77
2022-11-16T13:24:55.855Z,99914.45
2022-11-16T13:28:32.221Z,99908.40
2022-11-16T13:31:27.902Z,99910.25
2022-11-16T13:34:14.705Z,99914.17
2022-11-16T13:36:45.622Z,99913.42
2022-11-16T13:39:22.672Z,99914.88
2022-11-16T13:42:07.877Z,99919.42
2022-11-16T13:44:36.955Z,99919.51
2022-11-16T13:47:25.966Z,99915.68
2022-11-16T13:50:01.664Z,99913.03
2022-11-16T13:53:46.283Z,99913.52
2022-11-16T13:55:48.500Z,99916.56
2022-11-16T13:58:23.019Z,99906.77
2022-11-16T14:01:02.457Z,99902.40
2022-11-16T14:03:38.766Z,99893.00
2022-11-16T14:06:13.563Z,99889.95
2022-11-16T14:08:57.106Z,99891.03
2022-11-16T14:11:52.292Z,99895.71
2022-11-16T14:15:16.386Z,99903.17
2022-11-16T14:18:09.540Z,99910.48
2022-11-16T14:20:38.744Z,99911.05
2022-11-16T14:23:41.428Z,99905.98
2022-11-16T14:26:15.968Z,99906.45
2022-11-16T14:29:17.614Z,99908.44
2022-11-16T14:32:03.487Z,99911.29
2022-11-16T14:34:45.487Z,99904.92
2022-11-16T14:37:42.722Z,99904.02
2022-11-16T14:40:20.179Z,99894.67
2022-11-16T14:43:21.740Z,99889.02
2022-11-16T14:45:59.142Z,99878.88
2022-11-16T14:48:28.615Z,99882.36
2022-11-16T14:51:08.930Z,99889.75
2022-11-16T14:53:46.517Z,99897.98
2022-11-16T14:56:20.921Z,99907.41
2022-11-16T14:59:01.496Z,99912.93
2022-11-16T15:01:39.307Z,99907.39
2022-11-16T15:04:11.847Z,99908.72
2022-11-16T15:07:04.108Z,99907.41
2022-11-16T15:09:54.058Z,99902.34
2022-11-16T15:12:44.288Z,99902.42
2022-11-16T15:15:13.232Z,99894.52
2022-11-16T15:17:46.660Z,99890.52
2022-11-16T15:20:20.071Z,99886.63
2022-11-16T15:22:56.899Z,99880.89
2022-11-16T15:25:37.368Z,99880.92
2022-11-16T15:28:28.744Z,99890.63
2022-11-16T15:31:04.896Z,99900.56
2022-11-16T15:33:42.936Z,99899.30
2022-11-16T15:36:39.742Z,99894.26
2022-11-16T15:39:24.262Z,99894.77
2022-11-16T15:41:57.582Z,99891.66
2022-11-16T15:44:33.395Z,99890.84
2022-11-16T15:47:03.567Z,99886.80
2022-11-16T15:49:43.711Z,99893.39
2022-11-16T15:52:12.535Z,99901.20
2022-11-16T15:54:59.996Z,99899.66
2022-11-16T15:57:28.936Z,99911.19
2022-11-16T15:59:58.238Z,99914.00
2022-11-16T16:02:31.900Z,99912.06
2022-11-16T16:05:00.741Z,99913.48
2022-11-16T16:07:44.043Z,99909.52
2022-11-16T16:10:18.904Z,99906.10
2022-11-16T16:12:55.999Z,99900.35
2022-11-16T16:15:36.946Z,99887.91
2022-11-16T16:18:40.050Z,99880.23
2022-11-16T16:21:10.788Z,99877.21
2022-11-16T16:23:52.039Z,99882.03
2022-11-16T16:26:22.543Z,99880.27
2022-11-16T16:28:52.308Z,99885.15
2022-11-16T16:31:21.118Z,99889.50
2022-11-16T16:33:50.629Z,99894.67
2022-11-16T16:36:19.437Z,99890.48
2022-11-16T16:38:48.341Z,99889.21
2022-11-16T16:41:24.087Z,99888.54
2022-11-16T16:43:53.694Z,99900.10
2022-11-16T16:46:22.647Z,99903.27
2022-11-16T16:48:51.343Z,99902.24
2022-11-16T16:51:20.101Z,99895.00
2022-11-16T16:53:49.167Z,99888.19
2022-11-16T16:56:19.997Z,99894.06
2022-11-16T16:58:49.001Z,99900.77
2022-11-16T17:01:18.048Z,99900.69
2022-11-16T17:03:47.205Z,99895.94
2022-11-16T17:06:16.140Z,99898.91
2022-11-16T17:08:45.062Z,99903.96
2022-11-16T17:11:16.233Z,99904.02
2022-11-16T17:13:45.073Z,99908.37
2022-11-16T17:16:13.922Z,99906.36
2022-11-16T17:18:44.713Z,99906.89
2022-11-16T17:21:13.448Z,99915.77
2022-11-16T17:23:42.185Z,99913.34
2022-11-16T17:26:11.210Z,99915.83
2022-11-16T17:28:40.991Z,99915.89
2022-11-16T17:31:11.717Z,99919.00
2022-11-16T17:33:43.203Z,99918.64
2022-11-16T17:36:14.876Z,99916.22
2022-11-16T17:38:44.160Z,99912.21
2022-11-16T17:41:19.411Z,99908.37
2022-11-16T17:43:51.842Z,99910.88
2022-11-16T17:46:24.088Z,99911.95
2022-11-16T17:48:52.961Z,99914.42
2022-11-16T17:51:24.673Z,99914.23
2022-11-16T17:53:53.470Z,99912.94
2022-11-16T17:56:28.951Z,99914.21
2022-11-16T17:59:00.802Z,99910.79
2022-11-16T18:01:29.952Z,99905.27
2022-11-16T18:04:01.403Z,99907.48
2022-11-16T18:06:30.007Z,99913.45
2022-11-16T18:08:58.769Z,99913.85
2022-11-16T18:11:28.453Z,99914.75
2022-11-16T18:14:05.882Z,99914.71
2022-11-16T18:16:34.816Z,99909.27
2022-11-16T18:19:06.407Z,99904.90
2022-11-16T18:21:42.563Z,99900.55
2022-11-16T18:24:12.444Z,99890.41
2022-11-16T18:26:41.860Z,99886.94
2022-11-16T18:29:18.855Z,99884.56
2022-11-16T18:31:47.486Z,99878.95
2022-11-16T18:34:16.371Z,99876.64
2022-11-16T18:36:46.831Z,99884.73
2022-11-16T18:39:15.617Z,99884.73
2022-11-16T18:41:51.692Z,99885.54
2022-11-16T18:44:23.848Z,99883.14
2022-11-16T18:46:52.658Z,99881.70
2022-11-16T18:49:21.528Z,99883.34
2022-11-16T18:51:51.072Z,99880.62
2022-11-16T18:54:19.736Z,99882.17
2022-11-16T18:56:49.232Z,99880.43
2022-11-16T18:59:18.015Z,99873.23
2022-11-16T19:01:49.567Z,99865.23
2022-11-16T19:04:18.432Z,99862.70
2022-11-16T19:06:47.189Z,99859.38
2022-11-16T19:09:15.830Z,99859.08
2022-11-16T19:11:44.758Z,99854.98
2022-11-16T19:14:14.054Z,99855.67
2022-11-16T19:16:52.468Z,99861.89
2022-11-16T19:19:25.534Z,99861.50
2022-11-16T19:21:56.647Z,99855.56
2022-11-16T19:24:25.409Z,99855.95
2022-11-16T19:26:54.283Z,99855.09
2022-11-16T19:29:22.993Z,99857.92
2022-11-16T19:31:51.688Z,99859.65
2022-11-16T19:34:20.377Z,99853.45
2022-11-16T19:36:49.003Z,99852.14
2022-11-16T19:39:17.664Z,99858.79
2022-11-16T19:41:46.481Z,99862.27
2022-11-16T19:44:15.103Z,99862.23
2022-11-16T19:46:43.811Z,99870.43
2022-11-16T19:49:19.556Z,99870.27
2022-11-16T19:51:49.619Z,99873.69
2022-11-16T19:54:18.641Z,99868.48
2022-11-16T19:56:53.654Z,99871.10
2022-11-16T19:59:24.587Z,99868.44
2022-11-16T20:01:53.475Z,99865.63
2022-11-16T20:04:22.158Z,99858.96
2022-11-16T20:06:51.093Z,99852.71
2022-11-16T20:09:20.365Z,99847.80
2022-11-16T20:11:49.255Z,99843.41
2022-11-16T20:14:18.291Z,99842.99
2022-11-16T20:16:50.002Z,99840.16
2022-11-16T20:19:20.003Z,99837.27
2022-11-16T20:21:48.815Z,99835.09
2022-11-16T20:24:18.358Z,99835.41
2022-11-16T20:26:49.298Z,99830.88
2022-11-16T20:29:19.394Z,99825.38
2022-11-16T20:31:48.285Z,99823.15
2022-11-16T20:34:17.942Z,99822.88
2022-11-16T20:36:48.143Z,99822.84
2022-11-16T20:39:20.230Z,99827.41
2022-11-16T20:41:49.059Z,99825.90
2022-11-16T20:44:22.462Z,99820.30
2022-11-16T20:46:54.733Z,99817.68
2022-11-16T20:49:24.232Z,99824.76
2022-11-16T20:51:53.061Z,99826.69
2022-11-16T20:54:22.014Z,99824.42
2022-11-16T20:56:51.213Z,99822.77
2022-11-16T20:59:20.210Z,99816.08
2022-11-16T21:01:52.756Z,99818.05
2022-11-16T21:04:22.086Z,99816.31
2022-11-16T21:06:50.909Z,99814.29
2022-11-16T21:09:23.009Z,99807.61
2022-11-16T21:12:10.564Z,99805.59
2022-11-16T21:14:39.454Z,99811.36
2022-11-16T21:17:08.361Z,99813.44
2022-11-16T21:19:37.250Z,99816.34
2022-11-16T21:22:06.044Z,99816.58
2022-11-16T21:24:35.124Z,99815.89
2022-11-16T21:27:03.911Z,99816.20
2022-11-16T21:29:32.805Z,99816.31
2022-11-16T21:32:02.724Z,99818.60
2022-11-16T21:34:34.637Z,99816.95
2022-11-16T21:37:06.180Z,99808.71
2022-11-16T21:39:34.822Z,99810.30
2022-11-16T21:42:04.033Z,99805.39
2022-11-16T21:44:42.437Z,99807.18
2022-11-16T21:47:12.202Z,99806.16
2022-11-16T21:50:00.876Z,99806.81
2022-11-16T21:52:30.112Z,99804.65
2022-11-16T21:55:01.775Z,99797.65
2022-11-16T21:57:30.547Z,99795.21
2022-11-16T22:00:01.286Z,99792.08
2022-11-16T22:02:40.533Z,99792.83
2022-11-16T22:05:28.454Z,99798.14
2022-11-16T22:07:57.593Z,99801.27
2022-11-16T22:10:26.454Z,99804.45
2022-11-16T22:12:55.255Z,99799.40
2022-11-16T22:15:24.022Z,99798.64
2022-11-16T22:17:52.818Z,99804.88
2022-11-16T22:20:22.363Z,99810.05
2022-11-16T22:22:51.121Z,99816.52
2022-11-16T22:25:20.129Z,99812.26
2022-11-16T22:28:18.555Z,99810.02
2022-11-16T22:30:38.493Z,99812.42
2022-11-16T22:33:07.174Z,99816.27
2022-11-16T22:35:38.705Z,99813.48
2022-11-16T22:38:07.493Z,99810.77
2022-11-16T22:40:36.284Z,99818.88
2022-11-16T22:43:05.073Z,99816.61
2022-11-16T22:45:33.885Z,99816.61
2022-11-16T22:48:02.651Z,99824.80
2022-11-16T22:50:31.548Z,99824.80
2022-11-16T22:53:00.453Z,99819.75
2022-11-16T22:55:29.340Z,99814.98
2022-11-16T22:57:58.128Z,99815.63
2022-11-16T23:00:27.016Z,99811.58
2022-11-16T23:02:56.140Z,99808.39
2022-11-16T23:05:25.215Z,99801.52
2022-11-16T23:07:57.170Z,99798.09
2022-11-16T23:10:25.863Z,99797.55
2022-11-16T23:13:13.189Z,99792.73
2022-11-16T23:15:50.772Z,99787.33
2022-11-16T23:18:20.026Z,99781.60
2022-11-16T23:21:44.780Z,99769.02
2022-11-16T23:24:34.256Z,99760.59
2022-11-16T23:27:23.011Z,99752.02
2022-11-16T23:29:53.847Z,99753.70
2022-11-16T23:32:22.738Z,99749.59
2022-11-16T23:34:51.622Z,99742.84
2022-11-16T23:37:20.722Z,99734.68
2022-11-16T23:39:50.324Z,99733.00
2022-11-16T23:42:37.858Z,99736.66
2022-11-16T23:45:07.645Z,99738.77
2022-11-16T23:47:36.361Z,99734.66
2022-11-16T23:50:06.116Z,99724.42
2022-11-16T23:52:34.873Z,99721.52
2022-11-16T23:55:04.265Z,99724.53
2022-11-16T23:57:33.054Z,99724.22
